Time;durP1;ratioP1;P1;durP2;ratioP2;P2;SDS_P1;SDS_P2;PMS_P1;PMS_P2;Temp;Humidity;BMP_temperature;BMP_pressure;BME280_temperature;BME280_humidity;BME280_pressure;Samples;Min_cycle;Max_cycle;Signal;HPM_P1;HPM_P2
2021/06/14 03:33:47;;;;;;;44.43;41.43;;;10.00;99.90;;;;;;6152905;23;20512;-79
2021/06/14 05:15:56;;;;;;;15.27;8.10;;;13.30;99.90;;;;;;6125674;23;20525;-81
2021/06/14 05:18:23;;;;;;;17.47;5.53;;;13.70;99.90;;;;;;6125955;23;20765;-81
2021/06/14 06:45:45;;;;;;;62.10;11.47;;;21.90;17.00;;;;;;6068925;23;20436;-81
2021/06/14 06:48:12;;;;;;;60.07;12.33;;;22.30;16.30;;;;;;6078795;23;20926;-79
2021/06/14 06:50:39;;;;;;;63.17;12.17;;;22.60;14.10;;;;;;6067637;23;20412;-79
2021/06/14 06:53:06;;;;;;;65.43;12.80;;;22.40;15.20;;;;;;6078529;23;20436;-79
2021/06/14 06:55:33;;;;;;;68.13;14.50;;;23.00;14.40;;;;;;6078621;23;20387;-79
2021/06/14 06:58:00;;;;;;;67.00;11.30;;;22.90;10.80;;;;;;6078502;23;20415;-79
2021/06/14 07:00:27;;;;;;;63.00;12.37;;;22.90;10.70;;;;;;6065870;23;20444;-79
2021/06/14 07:02:55;;;;;;;63.60;13.73;;;22.70;10.30;;;;;;6075748;23;20706;-80
2021/06/14 07:05:22;;;;;;;63.03;14.70;;;22.90;10.40;;;;;;6065364;23;20713;-78
2021/06/14 07:07:49;;;;;;;62.67;10.60;;;23.00;9.70;;;;;;6066228;23;20390;-78
2021/06/14 07:10:17;;;;;;;64.10;10.70;;;23.00;9.90;;;;;;6066562;23;20433;-81
2021/06/14 07:12:45;;;;;;;64.67;10.57;;;23.10;12.30;;;;;;6067406;23;20405;-79
2021/06/14 07:15:12;;;;;;;65.47;10.87;;;23.20;9.20;;;;;;6076322;23;20383;-80
2021/06/14 07:17:42;;;;;;;67.43;12.10;;;23.30;9.00;;;;;;6076256;23;20726;-79
2021/06/14 07:20:12;;;;;;;64.63;10.00;;;23.20;6.80;;;;;;6064810;23;20970;-79
2021/06/14 07:22:40;;;;;;;68.80;12.60;;;23.40;9.50;;;;;;6067739;23;20496;-83
2021/06/14 07:25:08;;;;;;;65.03;10.20;;;23.60;7.10;;;;;;6068214;23;20470;-80
2021/06/14 07:27:36;;;;;;;64.53;10.97;;;23.90;8.20;;;;;;6064386;23;20459;-82
2021/06/14 07:30:06;;;;;;;65.57;9.30;;;24.10;9.80;;;;;;6066954;23;20503;-83
2021/06/14 07:32:32;;;;;;;65.50;10.20;;;24.30;7.60;;;;;;6076547;23;20499;-79
2021/06/14 07:34:59;;;;;;;66.77;10.20;;;24.50;5.70;;;;;;6074565;23;20417;-80
2021/06/14 07:37:28;;;;;;;66.30;9.33;;;24.20;5.10;;;;;;6066354;23;20411;-81
2021/06/14 07:39:55;;;;;;;68.27;10.90;;;24.50;5.80;;;;;;6066879;23;20502;-81
2021/06/14 07:42:22;;;;;;;65.77;10.17;;;24.80;8.00;;;;;;6076255;23;20500;-83
2021/06/14 07:44:49;;;;;;;68.50;14.50;;;24.80;4.10;;;;;;6076307;23;20409;-82
2021/06/14 07:47:15;;;;;;;67.10;11.70;;;24.70;2.60;;;;;;6076476;23;20500;-81
2021/06/14 07:49:42;;;;;;;70.47;16.97;;;24.90;2.40;;;;;;6075114;23;20515;-83
2021/06/14 07:52:10;;;;;;;69.20;9.83;;;24.90;1.00;;;;;;6067543;23;20574;-82
2021/06/14 07:54:38;;;;;;;66.80;9.50;;;25.10;3.00;;;;;;6076906;23;20383;-81
2021/06/14 07:57:06;;;;;;;71.77;9.77;;;25.00;1.00;;;;;;6066991;23;20399;-83
2021/06/14 07:59:33;;;;;;;69.00;18.03;;;25.10;2.20;;;;;;6067058;23;21097;-83
2021/06/14 08:02:00;;;;;;;66.80;9.23;;;25.00;3.40;;;;;;6076207;23;20420;-83
2021/06/14 08:04:27;;;;;;;69.40;18.40;;;25.10;1.00;;;;;;6074774;23;20449;-83
2021/06/14 08:06:54;;;;;;;67.10;9.57;;;25.10;4.70;;;;;;6076738;23;20999;-83
2021/06/14 08:09:25;;;;;;;68.80;18.70;;;25.30;1.00;;;;;;6067042;23;20407;-80
2021/06/14 08:11:55;;;;;;;66.80;9.30;;;25.60;1.00;;;;;;6067106;23;20379;-82
2021/06/14 08:14:22;;;;;;;72.40;20.70;;;25.70;1.00;;;;;;6066556;23;20411;-82
2021/06/14 08:16:49;;;;;;;72.10;21.80;;;25.90;1.00;;;;;;6066715;23;20459;-82
2021/06/14 08:19:21;;;;;;;70.27;11.10;;;26.20;1.00;;;;;;6065396;23;20435;-82
2021/06/14 08:22:10;;;;;;;73.20;22.20;;;26.40;1.00;;;;;;6066775;23;20488;-82
2021/06/14 08:27:24;;;;;;;71.30;19.30;;;26.50;1.00;;;;;;6075959;23;20448;-81
2021/06/14 08:29:51;;;;;;;72.07;26.60;;;26.30;1.00;;;;;;6066813;23;20497;-82
2021/06/14 08:32:18;;;;;;;70.60;9.90;;;26.20;1.00;;;;;;6066588;23;20376;-81
2021/06/14 08:34:45;;;;;;;70.67;19.77;;;26.10;1.00;;;;;;6065559;23;20464;-82
2021/06/14 08:37:15;;;;;;;69.60;19.47;;;26.50;1.00;;;;;;6066694;23;20397;-83
2021/06/14 08:39:41;;;;;;;73.37;20.87;;;26.50;1.00;;;;;;6066319;23;20411;-81
2021/06/14 08:42:08;;;;;;;76.77;23.07;;;26.90;1.00;;;;;;6066662;23;20380;-82
2021/06/14 08:44:37;;;;;;;72.40;25.30;;;27.10;1.00;;;;;;6075823;23;20436;-84
2021/06/14 08:47:06;;;;;;;72.90;24.07;;;27.40;1.00;;;;;;6066593;23;20720;-83
2021/06/14 08:49:35;;;;;;;68.03;9.90;;;27.20;1.00;;;;;;6064921;23;20483;-82
2021/06/14 08:52:02;;;;;;;66.90;11.27;;;27.60;1.00;;;;;;6066618;23;20491;-82
2021/06/14 08:54:29;;;;;;;70.97;12.30;;;27.90;1.00;;;;;;6066801;23;20447;-83
2021/06/14 08:56:56;;;;;;;68.70;11.17;;;27.90;1.00;;;;;;6066623;23;20382;-83
2021/06/14 08:59:23;;;;;;;77.43;34.10;;;27.60;1.00;;;;;;6068034;23;20506;-82
2021/06/14 09:01:51;;;;;;;74.17;30.90;;;27.70;1.00;;;;;;6077641;23;20854;-81
2021/06/14 09:04:19;;;;;;;70.37;12.37;;;27.60;1.00;;;;;;6067864;23;20772;-81
2021/06/14 09:06:46;;;;;;;70.57;11.23;;;27.50;1.00;;;;;;6069731;23;20404;-80
2021/06/14 09:09:13;;;;;;;74.50;27.27;;;27.90;1.00;;;;;;6069664;23;20389;-80
2021/06/14 09:11:49;;;;;;;75.17;33.10;;;27.90;1.00;;;;;;6069623;23;20879;-81
2021/06/14 09:14:17;;;;;;;75.17;28.70;;;28.20;1.00;;;;;;6069992;23;20458;-82
2021/06/14 09:16:45;;;;;;;74.47;30.50;;;28.40;1.00;;;;;;6070093;23;20405;-80
2021/06/14 09:19:28;;;;;;;81.37;30.80;;;28.60;1.00;;;;;;6077604;23;20432;-79
2021/06/14 09:21:58;;;;;;;74.17;29.43;;;28.60;1.00;;;;;;6069574;23;20458;-82
2021/06/14 09:24:25;;;;;;;78.77;27.90;;;28.50;1.00;;;;;;6069419;23;20375;-82
2021/06/14 09:26:53;;;;;;;68.97;9.63;;;28.50;1.00;;;;;;6069917;23;20767;-82
2021/06/14 09:29:26;;;;;;;76.10;29.10;;;29.20;1.00;;;;;;6069854;23;20500;-82
2021/06/14 09:31:58;;;;;;;68.97;10.90;;;29.00;1.00;;;;;;6069932;23;20911;-82
2021/06/14 09:34:39;;;;;;;76.53;32.33;;;29.20;1.00;;;;;;6068056;23;20983;-81
2021/06/14 09:37:09;;;;;;;69.93;12.10;;;29.20;1.00;;;;;;6069659;23;20400;-80
2021/06/14 09:39:37;;;;;;;71.37;16.73;;;29.60;1.00;;;;;;6075961;23;20440;-81
2021/06/14 09:42:17;;;;;;;68.87;14.53;;;29.70;1.00;;;;;;6077689;23;20416;-83
2021/06/14 09:44:45;;;;;;;75.40;31.27;;;29.50;1.00;;;;;;6067630;23;20422;-84
2021/06/14 09:47:15;;;;;;;75.13;28.03;;;29.30;1.00;;;;;;6069112;23;20367;-84
2021/06/14 09:49:57;;;;;;;72.67;16.80;;;29.30;1.00;;;;;;6066434;23;20404;-83
2021/06/14 09:52:25;;;;;;;78.47;32.40;;;29.60;1.00;;;;;;6068599;23;20688;-84
2021/06/14 09:54:52;;;;;;;77.43;36.40;;;30.10;1.00;;;;;;6075363;23;20503;-84
2021/06/14 09:57:27;;;;;;;72.23;18.10;;;29.70;1.00;;;;;;6077729;23;21023;-84
2021/06/14 10:00:07;;;;;;;79.27;37.00;;;29.60;1.00;;;;;;6068464;23;20535;-84
2021/06/14 10:02:35;;;;;;;72.30;16.37;;;29.90;1.00;;;;;;6068296;23;20742;-84
2021/06/14 10:05:15;;;;;;;71.97;17.87;;;30.10;1.00;;;;;;6076351;23;20444;-85
2021/06/14 10:07:47;;;;;;;79.73;40.30;;;30.30;1.00;;;;;;6078335;23;20411;-84
2021/06/14 10:10:26;;;;;;;81.07;36.77;;;30.80;1.00;;;;;;6068245;23;20492;-84
2021/06/14 10:12:55;;;;;;;76.77;35.00;;;31.00;1.00;;;;;;6068610;23;20402;-83
2021/06/14 10:15:30;;;;;;;80.77;40.37;;;30.80;1.00;;;;;;6067968;23;20379;-83
2021/06/14 10:17:57;;;;;;;79.80;38.17;;;30.50;1.00;;;;;;6068333;23;20758;-84
2021/06/14 10:20:28;;;;;;;78.77;41.10;;;29.80;1.00;;;;;;6076838;23;20415;-85
2021/06/14 10:22:57;;;;;;;81.90;42.37;;;30.60;1.00;;;;;;6077840;23;20495;-85
2021/06/14 10:25:25;;;;;;;78.57;41.53;;;30.80;1.00;;;;;;6068088;23;20400;-84
